sensor_id;sensor_type;location;lat;lon;timestamp;P1;durP1;ratioP1;P2;durP2;ratioP2
76138;SDS011;65138;50.946;7.074;2023-03-20T00:04:02;2.95;;;2.65;;
76138;SDS011;65138;50.946;7.074;2023-03-20T00:06:27;2.80;;;2.42;;
76138;SDS011;65138;50.946;7.074;2023-03-20T00:08:53;2.78;;;2.58;;
76138;SDS011;65138;50.946;7.074;2023-03-20T00:11:34;3.05;;;2.08;;
76138;SDS011;65138;50.946;7.074;2023-03-20T00:14:06;2.20;;;1.83;;
76138;SDS011;65138;50.946;7.074;2023-03-20T00:16:41;2.90;;;2.53;;
76138;SDS011;65138;50.946;7.074;2023-03-20T00:19:15;3.13;;;2.35;;
76138;SDS011;65138;50.946;7.074;2023-03-20T00:21:43;2.65;;;2.28;;
76138;SDS011;65138;50.946;7.074;2023-03-20T00:24:10;2.85;;;2.15;;
76138;SDS011;65138;50.946;7.074;2023-03-20T00:26:36;2.75;;;2.22;;
76138;SDS011;65138;50.946;7.074;2023-03-20T00:29:02;3.55;;;2.35;;
76138;SDS011;65138;50.946;7.074;2023-03-20T00:31:29;2.92;;;2.25;;
76138;SDS011;65138;50.946;7.074;2023-03-20T00:33:58;2.30;;;2.00;;
76138;SDS011;65138;50.946;7.074;2023-03-20T00:36:25;2.47;;;2.20;;
76138;SDS011;65138;50.946;7.074;2023-03-20T00:38:51;2.55;;;1.83;;
76138;SDS011;65138;50.946;7.074;2023-03-20T00:43:51;2.00;;;1.80;;
76138;SDS011;65138;50.946;7.074;2023-03-20T00:46:23;2.25;;;1.38;;
76138;SDS011;65138;50.946;7.074;2023-03-20T00:48:50;2.67;;;2.25;;
76138;SDS011;65138;50.946;7.074;2023-03-20T00:51:16;3.15;;;2.33;;
76138;SDS011;65138;50.946;7.074;2023-03-20T00:53:43;3.58;;;2.50;;
76138;SDS011;65138;50.946;7.074;2023-03-20T00:56:26;3.42;;;2.30;;
76138;SDS011;65138;50.946;7.074;2023-03-20T01:01:24;2.03;;;1.67;;
76138;SDS011;65138;50.946;7.074;2023-03-20T01:03:50;2.45;;;1.77;;
76138;SDS011;65138;50.946;7.074;2023-03-20T01:06:16;2.53;;;1.90;;
76138;SDS011;65138;50.946;7.074;2023-03-20T01:08:43;2.78;;;2.22;;
76138;SDS011;65138;50.946;7.074;2023-03-20T01:11:09;2.35;;;2.15;;
76138;SDS011;65138;50.946;7.074;2023-03-20T01:13:37;2.85;;;2.10;;
76138;SDS011;65138;50.946;7.074;2023-03-20T01:16:04;2.10;;;1.90;;
76138;SDS011;65138;50.946;7.074;2023-03-20T01:18:31;2.30;;;2.10;;
76138;SDS011;65138;50.946;7.074;2023-03-20T01:20:56;2.20;;;1.73;;
76138;SDS011;65138;50.946;7.074;2023-03-20T01:23:22;2.03;;;1.77;;
76138;SDS011;65138;50.946;7.074;2023-03-20T01:25:49;2.17;;;1.30;;
76138;SDS011;65138;50.946;7.074;2023-03-20T01:28:16;2.85;;;2.42;;
76138;SDS011;65138;50.946;7.074;2023-03-20T01:30:44;2.38;;;2.17;;
76138;SDS011;65138;50.946;7.074;2023-03-20T01:33:12;2.38;;;1.92;;
76138;SDS011;65138;50.946;7.074;2023-03-20T01:35:49;2.78;;;2.03;;
76138;SDS011;65138;50.946;7.074;2023-03-20T01:38:25;2.30;;;1.85;;
76138;SDS011;65138;50.946;7.074;2023-03-20T01:40:55;2.47;;;2.28;;
76138;SDS011;65138;50.946;7.074;2023-03-20T01:43:30;2.80;;;2.53;;
76138;SDS011;65138;50.946;7.074;2023-03-20T01:51:24;2.95;;;2.33;;
76138;SDS011;65138;50.946;7.074;2023-03-20T01:56:31;2.55;;;1.92;;
76138;SDS011;65138;50.946;7.074;2023-03-20T01:59:01;2.65;;;2.38;;
76138;SDS011;65138;50.946;7.074;2023-03-20T02:01:38;2.50;;;1.75;;
76138;SDS011;65138;50.946;7.074;2023-03-20T02:04:06;2.72;;;2.13;;
76138;SDS011;65138;50.946;7.074;2023-03-20T02:06:45;3.25;;;1.88;;
76138;SDS011;65138;50.946;7.074;2023-03-20T02:09:19;2.85;;;2.45;;
76138;SDS011;65138;50.946;7.074;2023-03-20T02:11:45;2.60;;;2.03;;
76138;SDS011;65138;50.946;7.074;2023-03-20T02:14:14;2.20;;;2.00;;
76138;SDS011;65138;50.946;7.074;2023-03-20T02:17:01;2.63;;;2.33;;
76138;SDS011;65138;50.946;7.074;2023-03-20T02:34:35;2.40;;;2.05;;
76138;SDS011;65138;50.946;7.074;2023-03-20T02:40:13;2.60;;;2.22;;
76138;SDS011;65138;50.946;7.074;2023-03-20T02:42:49;2.83;;;2.47;;
76138;SDS011;65138;50.946;7.074;2023-03-20T02:45:41;2.67;;;2.25;;
76138;SDS011;65138;50.946;7.074;2023-03-20T02:48:23;2.53;;;2.33;;
76138;SDS011;65138;50.946;7.074;2023-03-20T02:51:00;1.65;;;1.15;;
76138;SDS011;65138;50.946;7.074;2023-03-20T02:53:42;2.85;;;1.52;;
76138;SDS011;65138;50.946;7.074;2023-03-20T02:56:22;3.20;;;2.28;;
76138;SDS011;65138;50.946;7.074;2023-03-20T03:01:34;3.35;;;2.35;;
76138;SDS011;65138;50.946;7.074;2023-03-20T03:04:25;2.28;;;1.95;;
76138;SDS011;65138;50.946;7.074;2023-03-20T03:06:53;3.03;;;2.70;;
76138;SDS011;65138;50.946;7.074;2023-03-20T03:09:34;2.55;;;2.10;;
76138;SDS011;65138;50.946;7.074;2023-03-20T03:12:28;2.33;;;1.98;;
76138;SDS011;65138;50.946;7.074;2023-03-20T03:14:59;2.35;;;2.15;;
76138;SDS011;65138;50.946;7.074;2023-03-20T03:17:28;2.35;;;1.88;;
76138;SDS011;65138;50.946;7.074;2023-03-20T03:19:58;2.83;;;2.40;;
76138;SDS011;65138;50.946;7.074;2023-03-20T03:22:31;2.20;;;1.80;;
76138;SDS011;65138;50.946;7.074;2023-03-20T03:24:58;2.88;;;2.45;;
76138;SDS011;65138;50.946;7.074;2023-03-20T03:27:25;2.78;;;1.98;;
76138;SDS011;65138;50.946;7.074;2023-03-20T03:30:00;2.88;;;2.22;;
76138;SDS011;65138;50.946;7.074;2023-03-20T03:32:32;2.55;;;2.33;;
76138;SDS011;65138;50.946;7.074;2023-03-20T03:35:00;2.13;;;1.92;;
76138;SDS011;65138;50.946;7.074;2023-03-20T03:42:52;2.83;;;2.10;;
76138;SDS011;65138;50.946;7.074;2023-03-20T03:45:32;2.55;;;2.05;;
76138;SDS011;65138;50.946;7.074;2023-03-20T03:48:10;3.45;;;2.63;;
76138;SDS011;65138;50.946;7.074;2023-03-20T03:50:42;3.45;;;2.40;;
76138;SDS011;65138;50.946;7.074;2023-03-20T03:53:13;3.00;;;2.67;;
76138;SDS011;65138;50.946;7.074;2023-03-20T03:55:44;2.53;;;2.20;;
76138;SDS011;65138;50.946;7.074;2023-03-20T04:00:49;3.15;;;2.42;;
76138;SDS011;65138;50.946;7.074;2023-03-20T04:03:19;3.05;;;2.13;;
76138;SDS011;65138;50.946;7.074;2023-03-20T04:05:47;2.63;;;2.10;;
76138;SDS011;65138;50.946;7.074;2023-03-20T04:08:15;3.25;;;2.10;;
76138;SDS011;65138;50.946;7.074;2023-03-20T04:10:41;2.50;;;1.60;;
76138;SDS011;65138;50.946;7.074;2023-03-20T04:13:07;3.05;;;2.40;;
76138;SDS011;65138;50.946;7.074;2023-03-20T04:15:33;3.60;;;2.28;;
76138;SDS011;65138;50.946;7.074;2023-03-20T04:17:59;3.72;;;2.30;;
76138;SDS011;65138;50.946;7.074;2023-03-20T04:20:24;2.17;;;1.88;;
76138;SDS011;65138;50.946;7.074;2023-03-20T04:22:50;2.58;;;2.03;;
76138;SDS011;65138;50.946;7.074;2023-03-20T04:25:21;2.13;;;1.52;;
76138;SDS011;65138;50.946;7.074;2023-03-20T04:27:51;2.47;;;2.25;;
76138;SDS011;65138;50.946;7.074;2023-03-20T04:30:56;2.42;;;2.08;;
76138;SDS011;65138;50.946;7.074;2023-03-20T04:33:32;2.90;;;2.35;;
76138;SDS011;65138;50.946;7.074;2023-03-20T04:36:19;2.60;;;2.30;;
76138;SDS011;65138;50.946;7.074;2023-03-20T04:38:46;3.10;;;2.28;;
76138;SDS011;65138;50.946;7.074;2023-03-20T04:41:12;2.53;;;1.60;;
76138;SDS011;65138;50.946;7.074;2023-03-20T04:43:37;3.83;;;2.33;;
76138;SDS011;65138;50.946;7.074;2023-03-20T04:46:04;3.08;;;2.35;;
76138;SDS011;65138;50.946;7.074;2023-03-20T04:48:30;3.03;;;1.92;;
76138;SDS011;65138;50.946;7.074;2023-03-20T04:50:56;2.65;;;2.15;;
76138;SDS011;65138;50.946;7.074;2023-03-20T04:53:28;2.63;;;1.95;;
76138;SDS011;65138;50.946;7.074;2023-03-20T04:55:54;2.00;;;1.77;;
76138;SDS011;65138;50.946;7.074;2023-03-20T04:58:20;2.58;;;2.08;;
76138;SDS011;65138;50.946;7.074;2023-03-20T05:00:46;4.07;;;2.90;;
76138;SDS011;65138;50.946;7.074;2023-03-20T05:03:12;4.45;;;3.38;;
76138;SDS011;65138;50.946;7.074;2023-03-20T05:05:38;6.90;;;3.40;;
76138;SDS011;65138;50.946;7.074;2023-03-20T05:08:04;5.60;;;3.40;;
76138;SDS011;65138;50.946;7.074;2023-03-20T05:10:34;5.95;;;3.83;;
76138;SDS011;65138;50.946;7.074;2023-03-20T05:13:06;6.40;;;4.25;;
76138;SDS011;65138;50.946;7.074;2023-03-20T05:16:01;7.53;;;3.75;;
76138;SDS011;65138;50.946;7.074;2023-03-20T05:18:40;7.25;;;4.55;;
76138;SDS011;65138;50.946;7.074;2023-03-20T05:21:24;7.70;;;4.43;;
76138;SDS011;65138;50.946;7.074;2023-03-20T05:24:10;10.40;;;4.45;;
76138;SDS011;65138;50.946;7.074;2023-03-20T05:26:45;9.32;;;5.35;;
76138;SDS011;65138;50.946;7.074;2023-03-20T05:29:29;8.63;;;4.35;;
76138;SDS011;65138;50.946;7.074;2023-03-20T05:32:34;8.32;;;5.05;;
76138;SDS011;65138;50.946;7.074;2023-03-20T05:35:03;10.68;;;5.70;;
76138;SDS011;65138;50.946;7.074;2023-03-20T05:37:42;9.18;;;5.28;;
76138;SDS011;65138;50.946;7.074;2023-03-20T05:40:33;8.40;;;4.82;;
76138;SDS011;65138;50.946;7.074;2023-03-20T05:43:31;6.82;;;4.78;;
76138;SDS011;65138;50.946;7.074;2023-03-20T05:46:20;8.55;;;5.35;;
76138;SDS011;65138;50.946;7.074;2023-03-20T05:49:05;9.18;;;5.88;;
76138;SDS011;65138;50.946;7.074;2023-03-20T05:51:49;9.05;;;4.85;;
76138;SDS011;65138;50.946;7.074;2023-03-20T05:54:27;10.32;;;5.50;;
76138;SDS011;65138;50.946;7.074;2023-03-20T05:57:11;7.57;;;5.45;;
76138;SDS011;65138;50.946;7.074;2023-03-20T05:59:56;6.80;;;4.45;;
76138;SDS011;65138;50.946;7.074;2023-03-20T06:02:24;7.68;;;4.93;;
76138;SDS011;65138;50.946;7.074;2023-03-20T06:04:58;8.57;;;5.63;;
76138;SDS011;65138;50.946;7.074;2023-03-20T06:07:26;8.68;;;5.75;;
76138;SDS011;65138;50.946;7.074;2023-03-20T06:10:00;8.55;;;6.10;;
76138;SDS011;65138;50.946;7.074;2023-03-20T06:12:27;8.05;;;5.15;;
76138;SDS011;65138;50.946;7.074;2023-03-20T06:14:53;8.88;;;5.25;;
76138;SDS011;65138;50.946;7.074;2023-03-20T06:17:19;11.68;;;6.55;;
76138;SDS011;65138;50.946;7.074;2023-03-20T06:19:50;14.57;;;6.80;;
76138;SDS011;65138;50.946;7.074;2023-03-20T06:22:16;9.55;;;4.90;;
76138;SDS011;65138;50.946;7.074;2023-03-20T06:24:42;8.43;;;5.72;;
76138;SDS011;65138;50.946;7.074;2023-03-20T06:27:07;9.18;;;5.43;;
76138;SDS011;65138;50.946;7.074;2023-03-20T06:29:33;9.45;;;4.55;;
76138;SDS011;65138;50.946;7.074;2023-03-20T06:32:10;7.60;;;4.07;;
76138;SDS011;65138;50.946;7.074;2023-03-20T06:34:37;4.75;;;3.33;;
76138;SDS011;65138;50.946;7.074;2023-03-20T06:37:02;4.50;;;3.00;;
76138;SDS011;65138;50.946;7.074;2023-03-20T06:39:28;4.18;;;2.70;;
76138;SDS011;65138;50.946;7.074;2023-03-20T06:41:54;4.10;;;2.55;;
76138;SDS011;65138;50.946;7.074;2023-03-20T06:44:22;5.05;;;3.03;;
76138;SDS011;65138;50.946;7.074;2023-03-20T06:47:21;4.88;;;2.65;;
76138;SDS011;65138;50.946;7.074;2023-03-20T06:49:47;5.20;;;3.90;;
76138;SDS011;65138;50.946;7.074;2023-03-20T06:52:17;9.05;;;4.45;;
76138;SDS011;65138;50.946;7.074;2023-03-20T06:54:52;5.28;;;2.65;;
76138;SDS011;65138;50.946;7.074;2023-03-20T06:57:18;6.43;;;2.50;;
76138;SDS011;65138;50.946;7.074;2023-03-20T06:59:44;4.60;;;2.55;;
76138;SDS011;65138;50.946;7.074;2023-03-20T07:02:09;8.55;;;2.67;;
76138;SDS011;65138;50.946;7.074;2023-03-20T07:04:35;13.95;;;3.30;;
76138;SDS011;65138;50.946;7.074;2023-03-20T07:07:02;13.40;;;3.78;;
76138;SDS011;65138;50.946;7.074;2023-03-20T07:09:27;13.90;;;3.70;;
76138;SDS011;65138;50.946;7.074;2023-03-20T07:11:54;11.73;;;3.13;;
76138;SDS011;65138;50.946;7.074;2023-03-20T07:14:21;7.82;;;2.50;;
76138;SDS011;65138;50.946;7.074;2023-03-20T07:16:52;10.93;;;3.15;;
76138;SDS011;65138;50.946;7.074;2023-03-20T07:19:19;8.35;;;2.75;;
76138;SDS011;65138;50.946;7.074;2023-03-20T07:21:48;10.07;;;3.55;;
76138;SDS011;65138;50.946;7.074;2023-03-20T07:24:16;12.10;;;2.85;;
76138;SDS011;65138;50.946;7.074;2023-03-20T07:26:42;12.00;;;5.28;;
76138;SDS011;65138;50.946;7.074;2023-03-20T07:29:07;11.20;;;4.18;;
76138;SDS011;65138;50.946;7.074;2023-03-20T07:31:33;11.68;;;4.47;;
76138;SDS011;65138;50.946;7.074;2023-03-20T07:34:18;8.85;;;4.45;;
76138;SDS011;65138;50.946;7.074;2023-03-20T07:36:45;9.30;;;4.30;;
76138;SDS011;65138;50.946;7.074;2023-03-20T07:39:15;6.53;;;4.60;;
76138;SDS011;65138;50.946;7.074;2023-03-20T07:41:49;7.88;;;4.28;;
76138;SDS011;65138;50.946;7.074;2023-03-20T07:44:24;7.45;;;3.10;;
76138;SDS011;65138;50.946;7.074;2023-03-20T07:46:51;4.75;;;3.40;;
76138;SDS011;65138;50.946;7.074;2023-03-20T07:49:16;4.13;;;2.45;;
76138;SDS011;65138;50.946;7.074;2023-03-20T07:51:44;5.72;;;2.53;;
76138;SDS011;65138;50.946;7.074;2023-03-20T07:54:10;3.15;;;2.30;;
76138;SDS011;65138;50.946;7.074;2023-03-20T07:56:36;4.22;;;1.70;;
76138;SDS011;65138;50.946;7.074;2023-03-20T07:59:02;5.82;;;2.45;;
76138;SDS011;65138;50.946;7.074;2023-03-20T08:01:28;4.97;;;2.63;;
76138;SDS011;65138;50.946;7.074;2023-03-20T08:03:53;6.18;;;2.88;;
76138;SDS011;65138;50.946;7.074;2023-03-20T08:06:19;7.07;;;3.50;;
76138;SDS011;65138;50.946;7.074;2023-03-20T08:08:45;8.48;;;3.38;;
76138;SDS011;65138;50.946;7.074;2023-03-20T08:11:10;8.18;;;3.17;;
76138;SDS011;65138;50.946;7.074;2023-03-20T08:13:36;6.20;;;2.60;;
76138;SDS011;65138;50.946;7.074;2023-03-20T08:16:02;7.35;;;2.83;;
76138;SDS011;65138;50.946;7.074;2023-03-20T08:18:29;7.97;;;2.30;;
76138;SDS011;65138;50.946;7.074;2023-03-20T08:20:54;5.40;;;2.40;;
76138;SDS011;65138;50.946;7.074;2023-03-20T08:23:20;7.60;;;1.80;;
76138;SDS011;65138;50.946;7.074;2023-03-20T08:25:49;4.70;;;1.98;;
76138;SDS011;65138;50.946;7.074;2023-03-20T08:30:42;3.95;;;2.20;;
76138;SDS011;65138;50.946;7.074;2023-03-20T08:33:08;3.10;;;1.60;;
76138;SDS011;65138;50.946;7.074;2023-03-20T08:35:34;2.67;;;1.60;;
76138;SDS011;65138;50.946;7.074;2023-03-20T08:38:00;4.28;;;1.50;;
76138;SDS011;65138;50.946;7.074;2023-03-20T08:40:26;5.25;;;1.13;;
76138;SDS011;65138;50.946;7.074;2023-03-20T08:42:52;4.50;;;1.08;;
76138;SDS011;65138;50.946;7.074;2023-03-20T08:45:18;7.65;;;2.10;;
76138;SDS011;65138;50.946;7.074;2023-03-20T08:47:46;6.03;;;1.92;;
76138;SDS011;65138;50.946;7.074;2023-03-20T08:50:12;5.57;;;1.33;;
76138;SDS011;65138;50.946;7.074;2023-03-20T08:52:38;3.35;;;0.90;;
76138;SDS011;65138;50.946;7.074;2023-03-20T08:55:08;3.30;;;1.17;;
76138;SDS011;65138;50.946;7.074;2023-03-20T08:57:35;7.75;;;1.00;;
76138;SDS011;65138;50.946;7.074;2023-03-20T09:00:02;5.78;;;1.00;;
76138;SDS011;65138;50.946;7.074;2023-03-20T09:02:28;4.72;;;1.23;;
76138;SDS011;65138;50.946;7.074;2023-03-20T09:04:54;4.85;;;1.27;;
76138;SDS011;65138;50.946;7.074;2023-03-20T09:07:20;2.70;;;1.50;;
76138;SDS011;65138;50.946;7.074;2023-03-20T09:09:46;3.55;;;1.38;;
76138;SDS011;65138;50.946;7.074;2023-03-20T09:12:12;4.22;;;1.60;;
76138;SDS011;65138;50.946;7.074;2023-03-20T09:14:37;6.25;;;1.65;;
76138;SDS011;65138;50.946;7.074;2023-03-20T09:17:03;4.47;;;2.05;;
76138;SDS011;65138;50.946;7.074;2023-03-20T09:19:30;5.28;;;1.98;;
76138;SDS011;65138;50.946;7.074;2023-03-20T09:21:55;5.57;;;1.80;;
76138;SDS011;65138;50.946;7.074;2023-03-20T09:24:21;4.18;;;1.60;;
76138;SDS011;65138;50.946;7.074;2023-03-20T09:26:47;3.50;;;1.52;;
76138;SDS011;65138;50.946;7.074;2023-03-20T09:29:13;5.05;;;1.85;;
76138;SDS011;65138;50.946;7.074;2023-03-20T09:31:38;2.85;;;1.92;;
76138;SDS011;65138;50.946;7.074;2023-03-20T09:34:04;5.53;;;1.50;;
76138;SDS011;65138;50.946;7.074;2023-03-20T09:36:30;6.10;;;1.92;;
76138;SDS011;65138;50.946;7.074;2023-03-20T09:38:56;8.23;;;2.35;;
76138;SDS011;65138;50.946;7.074;2023-03-20T09:41:22;5.40;;;1.73;;
76138;SDS011;65138;50.946;7.074;2023-03-20T09:46:42;5.43;;;2.25;;
76138;SDS011;65138;50.946;7.074;2023-03-20T09:52:11;6.20;;;1.80;;
76138;SDS011;65138;50.946;7.074;2023-03-20T09:54:41;5.28;;;1.75;;
76138;SDS011;65138;50.946;7.074;2023-03-20T09:57:16;3.80;;;1.42;;
76138;SDS011;65138;50.946;7.074;2023-03-20T09:59:53;9.65;;;3.25;;
76138;SDS011;65138;50.946;7.074;2023-03-20T10:02:44;6.40;;;2.92;;
76138;SDS011;65138;50.946;7.074;2023-03-20T10:05:16;7.82;;;2.95;;
76138;SDS011;65138;50.946;7.074;2023-03-20T10:07:53;5.35;;;2.05;;
76138;SDS011;65138;50.946;7.074;2023-03-20T10:10:22;2.88;;;1.42;;
76138;SDS011;65138;50.946;7.074;2023-03-20T10:18:58;5.00;;;1.48;;
76138;SDS011;65138;50.946;7.074;2023-03-20T10:21:36;3.72;;;1.10;;
76138;SDS011;65138;50.946;7.074;2023-03-20T10:24:10;2.70;;;1.40;;
76138;SDS011;65138;50.946;7.074;2023-03-20T10:26:43;5.45;;;1.50;;
76138;SDS011;65138;50.946;7.074;2023-03-20T10:42:40;4.13;;;2.38;;
76138;SDS011;65138;50.946;7.074;2023-03-20T10:45:17;6.18;;;2.33;;
76138;SDS011;65138;50.946;7.074;2023-03-20T10:47:56;5.40;;;1.85;;
76138;SDS011;65138;50.946;7.074;2023-03-20T10:50:27;2.28;;;1.42;;
76138;SDS011;65138;50.946;7.074;2023-03-20T10:52:59;2.25;;;1.02;;
76138;SDS011;65138;50.946;7.074;2023-03-20T10:55:28;3.90;;;1.75;;
76138;SDS011;65138;50.946;7.074;2023-03-20T10:58:01;2.90;;;1.58;;
76138;SDS011;65138;50.946;7.074;2023-03-20T11:00:35;4.18;;;1.42;;
76138;SDS011;65138;50.946;7.074;2023-03-20T11:03:02;2.22;;;1.23;;
76138;SDS011;65138;50.946;7.074;2023-03-20T11:05:30;4.28;;;1.42;;
76138;SDS011;65138;50.946;7.074;2023-03-20T11:10:29;4.03;;;1.40;;
76138;SDS011;65138;50.946;7.074;2023-03-20T11:12:57;3.03;;;1.38;;
76138;SDS011;65138;50.946;7.074;2023-03-20T11:17:56;3.03;;;0.50;;
76138;SDS011;65138;50.946;7.074;2023-03-20T11:20:35;1.85;;;1.00;;
76138;SDS011;65138;50.946;7.074;2023-03-20T11:23:04;2.13;;;1.08;;
76138;SDS011;65138;50.946;7.074;2023-03-20T11:25:36;1.52;;;1.13;;
76138;SDS011;65138;50.946;7.074;2023-03-20T11:28:24;7.47;;;2.00;;
76138;SDS011;65138;50.946;7.074;2023-03-20T11:31:03;6.10;;;1.30;;
76138;SDS011;65138;50.946;7.074;2023-03-20T11:33:31;4.82;;;1.42;;
76138;SDS011;65138;50.946;7.074;2023-03-20T11:36:03;3.97;;;1.75;;
76138;SDS011;65138;50.946;7.074;2023-03-20T11:38:41;3.60;;;1.38;;
76138;SDS011;65138;50.946;7.074;2023-03-20T11:41:15;4.18;;;1.23;;
76138;SDS011;65138;50.946;7.074;2023-03-20T11:43:47;4.18;;;1.48;;
76138;SDS011;65138;50.946;7.074;2023-03-20T11:46:13;3.80;;;0.88;;
76138;SDS011;65138;50.946;7.074;2023-03-20T11:48:40;3.95;;;1.20;;
76138;SDS011;65138;50.946;7.074;2023-03-20T11:51:10;4.00;;;1.45;;
76138;SDS011;65138;50.946;7.074;2023-03-20T11:56:12;4.07;;;0.93;;
76138;SDS011;65138;50.946;7.074;2023-03-20T11:58:54;2.97;;;0.93;;
76138;SDS011;65138;50.946;7.074;2023-03-20T12:01:22;2.50;;;1.10;;
76138;SDS011;65138;50.946;7.074;2023-03-20T12:04:00;6.65;;;2.03;;
76138;SDS011;65138;50.946;7.074;2023-03-20T12:12:39;2.88;;;0.32;;
76138;SDS011;65138;50.946;7.074;2023-03-20T12:23:23;3.35;;;0.65;;
76138;SDS011;65138;50.946;7.074;2023-03-20T12:29:09;3.22;;;1.10;;
76138;SDS011;65138;50.946;7.074;2023-03-20T12:35:04;3.67;;;0.55;;
76138;SDS011;65138;50.946;7.074;2023-03-20T12:37:50;6.43;;;0.70;;
76138;SDS011;65138;50.946;7.074;2023-03-20T12:40:16;5.72;;;1.27;;
76138;SDS011;65138;50.946;7.074;2023-03-20T12:45:39;4.10;;;0.85;;
76138;SDS011;65138;50.946;7.074;2023-03-20T12:50:54;4.00;;;0.45;;
76138;SDS011;65138;50.946;7.074;2023-03-20T12:56:30;4.22;;;1.20;;
76138;SDS011;65138;50.946;7.074;2023-03-20T12:59:10;3.20;;;2.22;;
76138;SDS011;65138;50.946;7.074;2023-03-20T13:01:45;5.00;;;1.10;;
76138;SDS011;65138;50.946;7.074;2023-03-20T13:07:01;2.15;;;1.17;;
76138;SDS011;65138;50.946;7.074;2023-03-20T13:18:07;1.77;;;0.98;;
76138;SDS011;65138;50.946;7.074;2023-03-20T13:20:55;2.28;;;0.95;;
76138;SDS011;65138;50.946;7.074;2023-03-20T13:31:44;3.20;;;1.10;;
76138;SDS011;65138;50.946;7.074;2023-03-20T13:34:39;2.20;;;0.90;;
76138;SDS011;65138;50.946;7.074;2023-03-20T13:37:39;2.47;;;0.80;;
76138;SDS011;65138;50.946;7.074;2023-03-20T13:45:54;3.22;;;1.25;;
76138;SDS011;65138;50.946;7.074;2023-03-20T14:01:45;2.13;;;0.50;;
76138;SDS011;65138;50.946;7.074;2023-03-20T14:04:26;2.47;;;1.10;;
76138;SDS011;65138;50.946;7.074;2023-03-20T14:06:56;1.77;;;1.30;;
76138;SDS011;65138;50.946;7.074;2023-03-20T14:09:24;1.98;;;0.70;;
76138;SDS011;65138;50.946;7.074;2023-03-20T14:12:14;1.95;;;0.77;;
76138;SDS011;65138;50.946;7.074;2023-03-20T14:14:41;1.70;;;0.73;;
76138;SDS011;65138;50.946;7.074;2023-03-20T14:17:15;2.40;;;0.90;;
76138;SDS011;65138;50.946;7.074;2023-03-20T14:19:47;1.23;;;0.85;;
76138;SDS011;65138;50.946;7.074;2023-03-20T14:22:19;2.95;;;1.23;;
76138;SDS011;65138;50.946;7.074;2023-03-20T14:24:52;2.33;;;1.02;;
76138;SDS011;65138;50.946;7.074;2023-03-20T14:27:33;1.98;;;0.70;;
76138;SDS011;65138;50.946;7.074;2023-03-20T14:32:52;1.25;;;0.70;;
76138;SDS011;65138;50.946;7.074;2023-03-20T14:35:48;1.65;;;0.70;;
76138;SDS011;65138;50.946;7.074;2023-03-20T14:39:18;2.85;;;0.90;;
76138;SDS011;65138;50.946;7.074;2023-03-20T14:46:56;1.27;;;0.90;;
76138;SDS011;65138;50.946;7.074;2023-03-20T14:54:59;3.13;;;1.17;;
76138;SDS011;65138;50.946;7.074;2023-03-20T14:57:40;2.30;;;0.80;;
76138;SDS011;65138;50.946;7.074;2023-03-20T15:00:20;2.47;;;0.73;;
76138;SDS011;65138;50.946;7.074;2023-03-20T15:02:50;2.83;;;0.88;;
76138;SDS011;65138;50.946;7.074;2023-03-20T15:05:25;2.45;;;0.40;;
76138;SDS011;65138;50.946;7.074;2023-03-20T15:07:55;3.22;;;1.10;;
76138;SDS011;65138;50.946;7.074;2023-03-20T15:10:22;4.82;;;1.20;;
76138;SDS011;65138;50.946;7.074;2023-03-20T15:12:49;2.63;;;1.02;;
76138;SDS011;65138;50.946;7.074;2023-03-20T15:15:26;2.95;;;0.85;;
76138;SDS011;65138;50.946;7.074;2023-03-20T15:17:55;4.03;;;1.15;;
76138;SDS011;65138;50.946;7.074;2023-03-20T15:20:27;3.67;;;1.02;;
76138;SDS011;65138;50.946;7.074;2023-03-20T15:22:57;4.63;;;1.23;;
76138;SDS011;65138;50.946;7.074;2023-03-20T15:25:28;1.55;;;0.82;;
76138;SDS011;65138;50.946;7.074;2023-03-20T15:28:05;3.42;;;0.93;;
76138;SDS011;65138;50.946;7.074;2023-03-20T15:30:35;1.38;;;0.30;;
76138;SDS011;65138;50.946;7.074;2023-03-20T15:33:02;1.40;;;0.90;;
76138;SDS011;65138;50.946;7.074;2023-03-20T15:35:28;3.40;;;0.90;;
76138;SDS011;65138;50.946;7.074;2023-03-20T15:37:54;3.53;;;0.80;;
76138;SDS011;65138;50.946;7.074;2023-03-20T15:40:24;3.38;;;0.80;;
76138;SDS011;65138;50.946;7.074;2023-03-20T15:43:00;1.63;;;0.40;;
76138;SDS011;65138;50.946;7.074;2023-03-20T15:45:31;2.88;;;0.30;;
76138;SDS011;65138;50.946;7.074;2023-03-20T15:47:59;3.85;;;0.90;;
76138;SDS011;65138;50.946;7.074;2023-03-20T15:50:32;2.72;;;1.05;;
76138;SDS011;65138;50.946;7.074;2023-03-20T15:53:00;2.47;;;0.90;;
76138;SDS011;65138;50.946;7.074;2023-03-20T15:55:27;3.75;;;1.10;;
76138;SDS011;65138;50.946;7.074;2023-03-20T15:57:57;2.25;;;0.82;;
76138;SDS011;65138;50.946;7.074;2023-03-20T16:02:50;1.90;;;0.68;;
76138;SDS011;65138;50.946;7.074;2023-03-20T16:05:17;2.28;;;0.98;;
76138;SDS011;65138;50.946;7.074;2023-03-20T16:07:44;1.73;;;0.77;;
76138;SDS011;65138;50.946;7.074;2023-03-20T16:12:54;0.95;;;0.88;;
76138;SDS011;65138;50.946;7.074;2023-03-20T16:15:22;1.85;;;0.90;;
76138;SDS011;65138;50.946;7.074;2023-03-20T16:17:51;1.85;;;0.20;;
76138;SDS011;65138;50.946;7.074;2023-03-20T16:20:22;1.58;;;0.93;;
76138;SDS011;65138;50.946;7.074;2023-03-20T16:22:51;3.50;;;0.70;;
76138;SDS011;65138;50.946;7.074;2023-03-20T16:25:21;2.90;;;0.82;;
76138;SDS011;65138;50.946;7.074;2023-03-20T16:27:48;1.42;;;0.88;;
76138;SDS011;65138;50.946;7.074;2023-03-20T16:30:17;1.20;;;1.10;;
76138;SDS011;65138;50.946;7.074;2023-03-20T16:32:46;1.75;;;0.85;;
76138;SDS011;65138;50.946;7.074;2023-03-20T16:35:19;1.33;;;0.50;;
76138;SDS011;65138;50.946;7.074;2023-03-20T16:37:53;2.08;;;0.68;;
76138;SDS011;65138;50.946;7.074;2023-03-20T16:40:28;1.40;;;0.65;;
76138;SDS011;65138;50.946;7.074;2023-03-20T16:43:03;1.42;;;0.60;;
76138;SDS011;65138;50.946;7.074;2023-03-20T16:45:32;2.63;;;0.60;;
76138;SDS011;65138;50.946;7.074;2023-03-20T16:50:37;1.48;;;0.60;;
76138;SDS011;65138;50.946;7.074;2023-03-20T16:53:18;0.95;;;0.65;;
76138;SDS011;65138;50.946;7.074;2023-03-20T16:55:45;2.53;;;0.77;;
76138;SDS011;65138;50.946;7.074;2023-03-20T16:58:16;1.40;;;0.70;;
76138;SDS011;65138;50.946;7.074;2023-03-20T17:00:50;1.77;;;0.60;;
76138;SDS011;65138;50.946;7.074;2023-03-20T17:03:25;1.05;;;0.65;;
76138;SDS011;65138;50.946;7.074;2023-03-20T17:06:03;2.03;;;0.70;;
76138;SDS011;65138;50.946;7.074;2023-03-20T17:08:58;1.95;;;0.70;;
76138;SDS011;65138;50.946;7.074;2023-03-20T17:14:01;2.10;;;0.90;;
76138;SDS011;65138;50.946;7.074;2023-03-20T17:16:29;2.08;;;0.63;;
76138;SDS011;65138;50.946;7.074;2023-03-20T17:18:59;1.85;;;0.85;;
76138;SDS011;65138;50.946;7.074;2023-03-20T17:21:27;1.58;;;0.63;;
76138;SDS011;65138;50.946;7.074;2023-03-20T17:23:53;3.20;;;0.85;;
76138;SDS011;65138;50.946;7.074;2023-03-20T17:26:19;1.83;;;0.90;;
76138;SDS011;65138;50.946;7.074;2023-03-20T17:28:45;1.55;;;0.90;;
76138;SDS011;65138;50.946;7.074;2023-03-20T17:31:12;1.88;;;0.88;;
76138;SDS011;65138;50.946;7.074;2023-03-20T17:33:38;1.17;;;0.52;;
76138;SDS011;65138;50.946;7.074;2023-03-20T17:36:07;1.98;;;0.80;;
76138;SDS011;65138;50.946;7.074;2023-03-20T17:38:40;3.08;;;0.52;;
76138;SDS011;65138;50.946;7.074;2023-03-20T17:41:14;1.88;;;0.73;;
76138;SDS011;65138;50.946;7.074;2023-03-20T17:43:41;1.90;;;1.38;;
76138;SDS011;65138;50.946;7.074;2023-03-20T17:46:09;2.65;;;1.60;;
76138;SDS011;65138;50.946;7.074;2023-03-20T17:48:41;1.80;;;1.25;;
76138;SDS011;65138;50.946;7.074;2023-03-20T17:51:07;3.58;;;1.15;;
76138;SDS011;65138;50.946;7.074;2023-03-20T17:53:33;2.30;;;1.27;;
76138;SDS011;65138;50.946;7.074;2023-03-20T17:55:59;1.58;;;1.30;;
76138;SDS011;65138;50.946;7.074;2023-03-20T17:58:25;1.55;;;0.90;;
76138;SDS011;65138;50.946;7.074;2023-03-20T18:00:51;2.85;;;1.40;;
76138;SDS011;65138;50.946;7.074;2023-03-20T18:03:18;2.45;;;1.20;;
76138;SDS011;65138;50.946;7.074;2023-03-20T18:05:45;2.35;;;1.30;;